• Join FlightAware (Why Join?)
  • Login
  • US Flag 
12:23PM EDT


 

Airport Tracker/Info


-or-


 

Live Flight TrackerFlight Track Log ✈ N102WY ✈ 14-May-2013 ✈ KCYS - KJAC

Flight Track Log - Related Links

Times and Time Zones

All times are in EDT time to prevent confusion due to time zone crossing. See the N102WY flight status page for this flight to view local times or setup timezone preferences in your user account.

Time Position Orientation Groundspeed Altitude Reporting Facility
EDT Latitude Longitude Course Direction KTS MPH feet Rate Location/Type
08:06AM 41.1561 -104.8319 296° West 151 174 7,200  Level Denver Center
08:07AM 41.1783 -104.8936 296° West 189 217 9,200 2,040 Climbing Denver Center
08:08AM 41.2122 -104.9647 302° West 211 243 11,400 2,640 Climbing Denver Center
08:09AM 41.2544 -105.0572 301° West 239 275 14,600 2,820 Climbing Denver Center
08:10AM 41.2894 -105.1361 301° West 249 287 17,200 2,400 Climbing Denver Center
08:11AM 41.3281 -105.2178 302° West 260 299 19,500 2,280 Climbing Denver Center
08:12AM 41.3689 -105.3078 301° West 286 329 21,900 2,580 Climbing Denver Center
08:13AM 41.4156 -105.4139 300° West 295 339 24,800 2,460 Climbing Denver Center
08:14AM 41.4569 -105.5047 301° West 299 344 26,900 2,040 Climbing Denver Center
08:15AM 41.4981 -105.5997 300° West 305 351 29,000 1,920 Climbing Denver Center
08:16AM 41.5481 -105.7089 301° West 309 356 30,800 1,620 Climbing Denver Center
08:17AM 41.5925 -105.8097 301° West 323 372 32,300 1,380 Climbing Denver Center
08:18AM 41.6381 -105.9125 301° West 333 383 33,700 1,500 Climbing Denver Center
08:19AM 41.6928 -106.0350 301° West 341 392 35,400 1,380 Climbing Denver Center
08:20AM 41.7381 -106.1397 300° West 341 392 36,600 1,080 Climbing Denver Center
08:21AM 41.7856 -106.2467 301° West 346 398 37,600 660 Climbing Denver Center
08:22AM 41.8328 -106.3561 300° West 351 404 38,000 180 Climbing Denver Center
08:23AM 41.8889 -106.4833 301° West 353 406 38,000  Level Denver Center
08:24AM 41.9389 -106.5972 301° West 353 406 38,000  Level Denver Center
08:25AM 41.9853 -106.7047 300° West 349 402 38,000  Level Denver Center
08:26AM 42.0311 -106.8111 300° West 344 396 38,000  Level Denver Center
08:27AM 42.0836 -106.9347 300° West 340 391 38,000  Level Denver Center
08:28AM 42.1297 -107.0406 300° West 341 392 38,000  Level Denver Center
08:29AM 42.1828 -107.1636 300° West 341 392 38,000  Level Denver Center
08:30AM 42.2258 -107.2689 299° West 338 389 38,000  Level Denver Center
08:31AM 42.2700 -107.3767 299° West 342 394 38,000  Level Denver Center
08:32AM 42.3264 -107.5056 301° West 355 409 38,000  Level Denver Center
08:33AM 42.3731 -107.6156 300° West 353 406 38,000  Level Denver Center
08:34AM 42.4261 -107.7428 299° West 346 398 38,000  Level Salt Lake Center
08:35AM 42.4700 -107.8497 299° West 342 394 38,000  Level Salt Lake Center
08:36AM 42.5144 -107.9575 299° West 343 395 38,000  Level Salt Lake Center
08:38AM 42.5656 -108.0831 299° West 341 392 38,000  Level Salt Lake Center
08:39AM 42.6100 -108.1919 299° West 344 396 38,000  Level Salt Lake Center
08:40AM 42.6547 -108.3011 299° West 345 397 38,000  Level Salt Lake Center
08:41AM 42.7050 -108.4275 298° West 343 395 38,000  Level Salt Lake Center
08:42AM 42.7492 -108.5364 299° West 343 395 38,000  Level Salt Lake Center
08:43AM 42.7939 -108.6464 299° West 346 398 38,000  Level Salt Lake Center
08:44AM 42.8433 -108.7722 298° West 341 392 38,000  Level Salt Lake Center
08:45AM 42.8864 -108.8794 299° West 338 389 38,000  Level Salt Lake Center
08:46AM 42.9294 -108.9861 299° West 337 388 38,000  Level Salt Lake Center
08:47AM 42.9731 -109.0961 298° West 336 387 38,000  Level Salt Lake Center
08:48AM 43.0236 -109.2236 299° West 341 392 38,000 -420 Level Salt Lake Center
08:49AM 43.0669 -109.3347 298° West 344 396 37,200 -1,320 Descending Salt Lake Center
08:50AM 43.1119 -109.4492 298° West 355 409 35,400 -2,400 Descending Salt Lake Center
08:51AM 43.1650 -109.5822 299° West 356 410 32,400 -2,820 Descending Salt Lake Center
08:52AM 43.2069 -109.6936 297° West 345 397 29,800 -2,580 Descending Salt Lake Center
08:53AM 43.2478 -109.7981 298° West 327 376 27,300 -2,640 Descending Salt Lake Center
08:54AM 43.2908 -109.9083 298° West 310 357 24,500 -2,580 Descending Salt Lake Center
08:55AM 43.3267 -110.0006 298° West 294 338 22,200 -2,460 Descending Salt Lake Center
08:56AM 43.3661 -110.0978 299° West 275 316 19,600 -2,280 Descending Salt Lake Center
08:57AM 43.4011 -110.1819 300° West 257 296 17,600 -1,800 Descending Salt Lake Center
08:58AM 43.4331 -110.2619 299° West 242 278 16,000 -1,440 Descending Salt Lake Center
08:59AM 43.4781 -110.3233 315° West 229 264 14,700 -1,020 Descending Salt Lake Center
09:00AM 43.5203 -110.3867 313° West 224 258 14,000 -480 Descending Salt Lake Center
09:01AM 43.5644 -110.4494 314° West 228 262 13,800 -720 Descending Salt Lake Center
09:02AM 43.6033 -110.5031 315° West 207 238 12,600 -1,380 Descending Salt Lake Center
09:03AM 43.6372 -110.5522 314° West 185 213 11,100 -1,440 Descending Salt Lake Center
09:04AM 43.6661 -110.6053 307° West 179 206 9,700 -1,380 Descending Salt Lake Center
09:05AM 43.6789 -110.6608 288° West 166 191 8,400 -1,260 Descending Salt Lake Center
09:06AM 43.6556 -110.7144 239° Southwest 151 174 7,200 -960 Descending Salt Lake Center
09:07AM 43.6200 -110.7322 200° South 140 161 6,500 -720 Descending Salt Lake Center